Tiempo atmosférico en la estación meteorológica de Alcañices, Zamora (840 m.)



Fecha
DESCASC
Temp. máxima en grados centígrados (hora)
DESCASC
Temp. mínima en grados centígrados (hora)
DESCASC
Temp. media en grados centígrados
DESCASC
Racha de viento máxima en m/sg (hora)
DESCASC
Velocidad máxima media en intervalos de 10 minutos(hora)
DESCASC
Precipitaciones diarias en mm
DESCASC
Precipitaciones de 00:00 a 06:00 en mm
DESCASC
Precipitaciones de 06:00 a 12:00 en mm
DESCASC
Precipitaciones de 12:00 a 18:00 en mm
DESCASC
Precipitaciones de 18:00 a 24:00 en mm
DESCASC
08-12-2019 8.8 (17:30) 2.3 (02:20) 5.6 6.94 (14:40) 5.28 (14:40) 1.6 0 0.4 1.2 0
07-12-2019 12.6 (14:40) 0.6 (07:40) 6.6 5.56 (13:30) 3.89 (17:00) 0 0 0 0 0
06-12-2019 14.3 (14:50) 0.4 (07:20) 7.4 6.94 (02:10) 5.56 (02:10) 0 0 0 0 0
05-12-2019 9.9 (14:40) -0.7 (-00:0) 4.6 13.61 (13:20) 10.28 (13:20) 0 0 0 0 0
04-12-2019 10.6 (13:40) -2.5 (07:00) 4.1 10.28 (13:20) 7.78 (13:20) 0 0 0 0 0
03-12-2019 5.8 (13:20) -1.6 (-00:0) 2.1 13.61 (12:00) 9.72 (12:00) 0 0 0 0 0
02-12-2019 10.7 (15:00) 1.2 (00:00) 5.9 15.28 (11:10) 10.83 (11:10) 0 0 0 0 0
01-12-2019 9.2 (13:30) 3.8 (00:00) 6.5 11.67 (15:20) 7.78 (14:40) 0.2 0 0.2 0 0
30-11-2019 11.7 (10:50) 4.2 (00:00) 7.9 14.72 (10:30) 9.72 (10:00) 1 0 1 0 0
29-11-2019 13.2 (13:50) 9.4 (00:00) 11.3 10.83 (23:59) 6.39 (23:59) 0 0 0 0 0
28-11-2019 12.1 (14:10) 8 (00:00) 10.1 14.17 (00:30) 10 (14:40) 3.4 0.4 0.6 2.4 0
27-11-2019 9 (16:10) 6.3 (00:00) 7.7 15.83 (16:30) 9.72 (16:30) 1.2 0 0 1 0.2
26-11-2019 12.8 (16:00) 7.7 (00:00) 10.3 16.94 (18:30) 10.83 (16:50) 11.4 0.6 3 3 4.8
25-11-2019 11.7 (13:40) 8.5 (22:10) 10.1 13.33 (02:50) 8.61 (16:40) 1.2 0.6 0.6 0 0
24-11-2019 9.7 (23:30) 2.5 (00:00) 6.1 12.78 (22:00) 7.78 (22:00) 4.6 0 0 0.2 4.4
23-11-2019 10.6 (14:20) 3.6 (00:00) 7.1 17.78 (00:40) 10 (01:30) 0 0 0 0 0
22-11-2019 11.4 (13:40) 5.1 (00:00) 8.2 17.78 (20:30) 11.94 (11:50) 12.6 3.4 4.8 1 3.4
21-11-2019 8.4 (16:50) 3.9 (00:00) 6.1 10.28 (04:20) 5.28 (04:30) 3.2 0.6 2.6 0 0
20-11-2019 6.1 (16:40) 3.9 (02:10) 5 9.72 (22:40) 6.39 (22:20) 10 2 4.6 1.8 1.6
19-11-2019 8.3 (14:10) -0.7 (-00:0) 3.8 6.39 (15:00) 4.17 (14:30) 0.2 0 0 0 0.2
18-11-2019 12.7 (15:30) -0.1 (00:00) 6.3 5.83 (15:40) 3.61 (12:50) 0 0 0 0 0
17-11-2019 10.8 (16:10) 1.6 (00:00) 6.2 13.89 (15:50) 8.61 (15:50) 0.2 0 0.2 0 0
16-11-2019 8.2 (14:10) -2 (-00:0) 3.1 12.22 (15:40) 7.78 (16:00) 0 0 0 0 0
15-11-2019 7.9 (14:20) -0.7 (-00:0) 3.6 9.44 (12:40) 7.22 (16:20) 0 0 0 0 0
14-11-2019 6.8 (00:00) 0.3 (00:00) 3.6 18.06 (17:50) 11.11 (17:40) 7.4 3.2 0 3.8 0.4
13-11-2019 14.6 (14:30) 6.6 (00:00) 10.6 15.28 (22:50) 10 (22:50) 5.4 5.4 0 0 0
12-11-2019 9.5 (23:59) 2.6 (00:00) 6 13.89 (23:30) 9.17 (23:40) 6.2 0 0 0 6.2
11-11-2019 15.8 (15:30) 3.3 (23:59) 9.6 7.22 (16:40) 5.28 (16:50) 0 0 0 0 0
10-11-2019 8.1 (11:20) 1.5 (00:00) 4.8 13.33 (12:30) 8.89 (12:30) 0 0 0 0 0

Gráficas

Temp. máximas Temp. mínimas Temp. medias Precipitaciones Rachas de viento máximas Velocidades máximas media en intervalos de 10 minutos

Datos horarios

Fecha y hora oficial Temperatura (ºC) Velocidad del viento (km/h) Dirección del viento Racha (km/h) Dirección de racha Precipitación (mm) Presión (hPa) Tendencia (hPa) Humedad (%)
2019-12-09 23:00:00 2.3 3 Nordeste 9 Nordeste 0 -- -- 100
2019-12-09 22:00:00 2.1 10 Nordeste 18 Nordeste 0 -- -- 100
2019-12-09 21:00:00 3.3 15 Nordeste 17 Nordeste 0 -- -- 100
2019-12-09 20:00:00 3.7 8 Nordeste 11 Nordeste 0 -- -- 100
2019-12-09 19:00:00 4.5 0 Calma 5 Sudeste 0 -- -- 100
2019-12-09 18:00:00 5.4 0 Calma 5 Sudeste 0 -- -- 97
2019-12-09 17:00:00 6.6 5 Sur 15 Sudoeste 0 -- -- 95
2019-12-09 16:00:00 6.5 12 Sudoeste 17 Sudoeste 0 -- -- 94
2019-12-09 15:00:00 6.8 15 Sudoeste 19 Sudoeste 0 -- -- 95
2019-12-09 14:00:00 7 12 Sudoeste 17 Sudoeste 0 -- -- 99
2019-12-09 13:00:00 6.7 13 Oeste 23 Sudoeste 0 -- -- 98
2019-12-09 12:00:00 4.3 10 Sudoeste 14 Sudoeste 0 -- -- 100
2019-12-09 11:00:00 3.4 8 Sudoeste 14 Sur 0 -- -- 100
2019-12-09 10:00:00 2.7 12 Sudoeste 18 Sudoeste 0 -- -- 100
2019-12-09 09:00:00 2.2 6 Sudoeste 11 Sudoeste 0 -- -- 100
2019-12-09 08:00:00 2.6 6 Sudoeste 15 Sudoeste 0 -- -- 100
2019-12-09 07:00:00 3.2 7 Sudoeste 15 Sudoeste 0 -- -- 100
2019-12-09 06:00:00 1.9 4 Este 9 Nordeste 0 -- -- 100
2019-12-09 05:00:00 3.6 5 Sudoeste 11 Sudoeste 0 -- -- 100
2019-12-09 04:00:00 3 0 Calma 14 Oeste 0 -- -- 100
2019-12-09 03:00:00 3.7 10 Oeste 14 Oeste 0 -- -- 100
2019-12-09 02:00:00 2.9 5 Sudoeste 10 Sudoeste 0 -- -- 100
2019-12-09 01:00:00 2.8 9 Oeste 12 Sudoeste 0 -- -- 100
2019-12-09 00:00:00 4.7 7 Sudoeste 15 Oeste 0 -- -- 100
2019-12-08 23:00:00 4.6 7 Oeste 12 Oeste 0 -- -- 100
2019-12-08 22:00:00 6.7 10 Oeste 13 Sudoeste 0 -- -- 100
2019-12-08 21:00:00 8.2 4 Oeste 15 Oeste 0 -- -- 100
2019-12-08 20:00:00 8.6 10 Oeste 15 Oeste 0 -- -- 100
2019-12-08 19:00:00 8.7 6 Sudoeste 17 Sudoeste 0 -- -- 100
2019-12-08 18:00:00 8.7 12 Sudoeste 18 Sudoeste 0 -- -- 100
2019-12-08 17:00:00 8.7 11 Sudoeste 23 Sudoeste 0 -- -- 100
2019-12-08 16:00:00 8.6 16 Sudoeste 23 Sudoeste 0 -- -- 100
2019-12-08 15:00:00 8.1 17 Sudoeste 25 Sudoeste 0.2 -- -- 100
2019-12-08 14:00:00 8.1 15 Sudoeste 21 Sudoeste 0 -- -- 100
2019-12-08 13:00:00 7.6 17 Sudoeste 23 Sudoeste 1 -- -- 100
2019-12-08 12:00:00 7.2 13 Sudoeste 24 Sudoeste 0.4 -- -- 100
2019-12-08 11:00:00 6.3 16 Sudoeste 24 Sudoeste 0 -- -- 100
2019-12-08 10:00:00 6 16 Sudoeste 22 Sudoeste 0 -- -- 100
2019-12-08 09:00:00 5.4 10 Sudoeste 17 Sudoeste 0 -- -- 100
2019-12-08 08:00:00 5.4 9 Sudoeste 16 Sudoeste 0 -- -- 100
2019-12-08 07:00:00 5.3 10 Sudoeste 16 Sudoeste 0 -- -- 100
2019-12-08 06:00:00 5.2 10 Sudoeste 13 Sudoeste 0 -- -- 100
2019-12-08 05:00:00 5.1 9 Sudoeste 12 Oeste 0 -- -- 100
2019-12-08 04:00:00 4.8 11 Sudoeste 17 Sudoeste 0 -- -- 100
2019-12-08 03:00:00 4.9 9 Oeste 12 Oeste 0 -- -- 100
2019-12-08 02:00:00 3.3 3 Oeste 8 Sudoeste 0 -- -- 98
2019-12-08 01:00:00 3.9 2 Sur -- -- 0 -- -- 100
2019-12-08 00:00:00 4.2 4 Sudoeste 6 Oeste 0 -- -- 99
2019-12-07 23:00:00 4.9 4 Oeste 9 Sudoeste 0 -- -- 97
2019-12-07 22:00:00 5.5 7 Sudoeste 12 Sudoeste 0 -- -- 95
2019-12-07 21:00:00 5.2 7 Sudoeste 14 Sudoeste 0 -- -- 92
2019-12-07 20:00:00 6.4 9 Sudoeste 12 Sudoeste 0 -- -- 91
2019-12-07 19:00:00 7 10 Sudoeste 13 Sudoeste 0 -- -- 87
2019-12-07 18:00:00 7.8 9 Sudoeste 14 Sudoeste 0 -- -- 83
2019-12-07 17:00:00 10.9 14 Sudoeste 19 Sudoeste 0 -- -- 71
2019-12-07 16:00:00 12.3 11 Sudoeste 18 Oeste 0 -- -- 64
2019-12-07 15:00:00 12.4 10 Sudoeste 18 Oeste 0 -- -- 66
2019-12-07 14:00:00 11.5 10 Sudoeste 20 Sudoeste 0 -- -- 71
2019-12-07 13:00:00 11.7 7 Sur 13 Sur 0 -- -- 72
2019-12-07 12:00:00 9.8 4 Sudeste 8 Sudeste 0 -- -- 81
2019-12-07 11:00:00 7.6 2 Norte 4 Nordeste 0 -- -- 96
2019-12-07 10:00:00 5.9 3 Este 6 Este 0 -- -- 100
2019-12-07 09:00:00 3.9 3 Este 4 Este 0 -- -- 100
2019-12-07 08:00:00 1.7 2 Nordeste 7 Norte 0 -- -- 100
2019-12-07 07:00:00 1.6 5 Norte 6 Norte 0 -- -- 100
2019-12-07 06:00:00 1.6 4 Oeste 6 Noroeste 0 -- -- 100
2019-12-07 05:00:00 3.4 4 Sur 8 Sudeste 0 -- -- 96
2019-12-07 04:00:00 3 0 Calma 8 Nordeste 0 -- -- 100
2019-12-07 03:00:00 2.7 0 Calma 7 Este 0 -- -- 100
2019-12-07 02:00:00 3 3 Norte 8 Este 0 -- -- 100
2019-12-07 01:00:00 3.1 4 Noroeste 5 Oeste 0 -- -- 100
2019-12-07 00:00:00 4.6 3 Oeste 5 Sudoeste 0 -- -- 100
2019-12-06 23:00:00 4.3 0 Calma 6 Noroeste 0 -- -- 99
2019-12-06 22:00:00 5 5 Noroeste 6 Noroeste 0 -- -- 95
2019-12-06 21:00:00 6.5 2 Oeste 4 Sudoeste 0 -- -- 90
2019-12-06 20:00:00 6.3 5 Sudoeste 9 Oeste 0 -- -- 91
2019-12-06 19:00:00 5.8 4 Sur 9 Sudoeste 0 -- -- 92
2019-12-06 18:00:00 8.3 7 Sudoeste 9 Oeste 0 -- -- 83
2019-12-06 17:00:00 10.5 7 Sudoeste 11 Oeste 0 -- -- 73
2019-12-06 16:00:00 13.5 4 Sudoeste 12 Sudoeste 0 -- -- 59
2019-12-06 15:00:00 14.1 0 Calma 6 Sur 0 -- -- 56
2019-12-06 14:00:00 14.1 3 Noroeste 8 Noroeste 0 -- -- 56
2019-12-06 13:00:00 13.9 2 Noroeste 10 Nordeste 0 -- -- 57
2019-12-06 12:00:00 12.1 5 Norte 10 Nordeste 0 -- -- 63
2019-12-06 11:00:00 7.1 5 Nordeste 10 Nordeste 0 -- -- 83
2019-12-06 10:00:00 3.5 3 Norte 13 Nordeste 0 -- -- 96
2019-12-06 09:00:00 1.3 3 Este 6 Este 0 -- -- 98
2019-12-06 08:00:00 1 4 Nordeste 8 Nordeste 0 -- -- 100
2019-12-06 07:00:00 0.6 8 Nordeste 13 Este 0 -- -- 100
2019-12-06 06:00:00 1.2 10 Nordeste 13 Este 0 -- -- 99
2019-12-06 05:00:00 1.8 5 Este 12 Nordeste 0 -- -- 98
2019-12-06 04:00:00 1.7 9 Norte 22 Nordeste 0 -- -- 98
2019-12-06 03:00:00 2.8 15 Norte 25 Nordeste 0 -- -- 96
2019-12-06 02:00:00 3.6 19 Nordeste 23 Nordeste 0 -- -- 96
2019-12-06 01:00:00 3.6 16 Nordeste 21 Nordeste 0 -- -- 96
2019-12-06 00:00:00 4 13 Nordeste 21 Nordeste 0 -- -- 95
2019-12-05 23:00:00 5.1 19 Nordeste 28 Nordeste 0 -- -- 91
2019-12-05 22:00:00 5.3 20 Nordeste 31 Nordeste 0 -- -- 91
2019-12-05 21:00:00 5.6 18 Nordeste 28 Nordeste 0 -- -- 91
2019-12-05 20:00:00 6.1 19 Nordeste 32 Nordeste 0 -- -- 89
2019-12-05 19:00:00 6.4 20 Nordeste 27 Nordeste 0 -- -- 88
2019-12-05 18:00:00 7.1 22 Nordeste 36 Nordeste 0 -- -- 83
2019-12-05 17:00:00 8.5 21 Nordeste 40 Nordeste 0 -- -- 77
2019-12-05 16:00:00 8.6 31 Nordeste 45 Nordeste 0 -- -- 76
2019-12-05 15:00:00 9.8 32 Nordeste 44 Nordeste 0 -- -- 73
2019-12-05 14:00:00 8.7 31 Nordeste 49 Nordeste 0 -- -- 78
2019-12-05 13:00:00 8.4 32 Nordeste 48 Este 0 -- -- 79
2019-12-05 12:00:00 6.4 27 Nordeste 40 Nordeste 0 -- -- 87
2019-12-05 11:00:00 4.4 18 Nordeste 25 Nordeste 0 -- -- 89
2019-12-05 10:00:00 3.3 15 Nordeste 22 Nordeste 0 -- -- 90
2019-12-05 09:00:00 0.8 10 Este 14 Este 0 -- -- 94
2019-12-05 08:00:00 0.5 10 Nordeste 15 Nordeste 0 -- -- 96
2019-12-05 07:00:00 0.3 14 Nordeste 15 Nordeste 0 -- -- 96
2019-12-05 06:00:00 -0.6 12 Norte 14 Norte 0 -- -- 99
2019-12-05 05:00:00 -0.2 10 Nordeste 15 Nordeste 0 -- -- 99
2019-12-05 04:00:00 0.1 13 Nordeste 15 Nordeste 0 -- -- 99
2019-12-05 03:00:00 0.5 12 Nordeste 19 Este 0 -- -- 96
2019-12-05 02:00:00 1.5 14 Este 21 Este 0 -- -- 92
2019-12-05 01:00:00 2 12 Este 18 Este 0 -- -- 90
2019-12-05 00:00:00 2.3 13 Este 17 Este 0 -- -- 90
2019-12-04 23:00:00 3.1 11 Este 14 Nordeste 0 -- -- 87
2019-12-04 22:00:00 4.8 13 Nordeste 19 Nordeste 0 -- -- 81
2019-12-04 21:00:00 5.2 14 Nordeste 17 Nordeste 0 -- -- 81
2019-12-04 20:00:00 5.6 12 Nordeste 19 Nordeste 0 -- -- 84
2019-12-04 19:00:00 6.8 17 Nordeste 22 Nordeste 0 -- -- 80
2019-12-04 18:00:00 6.9 13 Nordeste 17 Nordeste 0 -- -- 81
2019-12-04 17:00:00 8.2 14 Nordeste 27 Nordeste 0 -- -- 76
2019-12-04 16:00:00 8.8 18 Nordeste 28 Nordeste 0 -- -- 74
2019-12-04 15:00:00 9.1 19 Nordeste 32 Norte 0 -- -- 68
2019-12-04 14:00:00 10.4 23 Nordeste 37 Nordeste 0 -- -- 61
2019-12-04 13:00:00 9.2 26 Nordeste 33 Nordeste 0 -- -- 65
2019-12-04 12:00:00 6 15 Nordeste 30 Nordeste 0 -- -- 76
2019-12-04 11:00:00 4.6 23 Nordeste 28 Nordeste 0 -- -- 81
2019-12-04 10:00:00 2.3 14 Nordeste 19 Nordeste 0 -- -- 87
2019-12-04 09:00:00 -0.2 16 Nordeste 21 Nordeste 0 -- -- 95
2019-12-04 08:00:00 -1.4 15 Nordeste 20 Nordeste 0 -- -- 98
2019-12-04 07:00:00 -2.5 7 Nordeste 14 Nordeste 0 -- -- 100
2019-12-04 06:00:00 -1.9 11 Nordeste 23 Nordeste 0 -- -- 99
2019-12-04 05:00:00 -1.8 13 Nordeste 20 Nordeste 0 -- -- 100
2019-12-04 04:00:00 -1.5 17 Nordeste 22 Nordeste 0 -- -- 99
2019-12-04 03:00:00 -1.7 13 Nordeste 18 Nordeste 0 -- -- 100
2019-12-04 02:00:00 -1.9 16 Nordeste 22 Nordeste 0 -- -- 99
2019-12-04 01:00:00 -1.1 15 Nordeste 21 Nordeste 0 -- -- 98
2019-12-04 00:00:00 -1.6 12 Nordeste 18 Nordeste 0 -- -- 97
2019-12-03 23:00:00 -1.4 11 Nordeste 23 Nordeste 0 -- -- 98
2019-12-03 22:00:00 -0.8 17 Nordeste 21 Nordeste 0 -- -- 97
2019-12-03 21:00:00 -0.1 14 Nordeste 20 Nordeste 0 -- -- 94
2019-12-03 20:00:00 0.4 13 Nordeste 19 Nordeste 0 -- -- 92
2019-12-03 19:00:00 1.1 17 Nordeste 22 Nordeste 0 -- -- 91
2019-12-03 18:00:00 1.9 13 Nordeste 31 Este 0 -- -- 86
2019-12-03 17:00:00 4.3 21 Nordeste 33 Este 0 -- -- 75
2019-12-03 16:00:00 4 24 Este 37 Este 0 -- -- 76
2019-12-03 15:00:00 4.4 21 Nordeste 40 Nordeste 0 -- -- 74
2019-12-03 14:00:00 5.1 25 Nordeste 40 Nordeste 0 -- -- 74
2019-12-03 13:00:00 5.4 28 Nordeste 48 Nordeste 0 -- -- 70
2019-12-03 12:00:00 4.9 35 Nordeste 49 Nordeste 0 -- -- 71
2019-12-03 11:00:00 3.9 29 Nordeste 42 Nordeste 0 -- -- 76
2019-12-03 10:00:00 2.4 19 Nordeste 29 Nordeste 0 -- -- 86
2019-12-03 09:00:00 0.2 9 Nordeste 27 Nordeste 0 -- -- 93
2019-12-03 08:00:00 -0.3 21 Nordeste 30 Nordeste 0 -- -- 95
2019-12-03 07:00:00 -0.3 19 Nordeste 36 Nordeste 0 -- -- 96
2019-12-03 06:00:00 0.2 26 Nordeste 36 Nordeste 0 -- -- 94
2019-12-03 05:00:00 0 19 Nordeste 29 Nordeste 0 -- -- 94
2019-12-03 04:00:00 0.4 21 Nordeste 35 Nordeste 0 -- -- 91
2019-12-03 03:00:00 0.4 18 Nordeste 31 Nordeste 0 -- -- 90
2019-12-03 02:00:00 0.7 21 Nordeste 39 Nordeste 0 -- -- 89
2019-12-03 01:00:00 1.1 28 Nordeste 45 Nordeste 0 -- -- 87
2019-12-03 00:00:00 1.2 25 Este 38 Este 0 -- -- 88
2019-12-02 23:00:00 1.5 23 Nordeste 41 Nordeste 0 -- -- 88
2019-12-02 22:00:00 2.2 30 Este 46 Nordeste 0 -- -- 85
2019-12-02 21:00:00 2.8 25 Nordeste 45 Nordeste 0 -- -- 84
2019-12-02 20:00:00 3.7 27 Nordeste 49 Este 0 -- -- 85
2019-12-02 19:00:00 4.7 26 Nordeste 41 Este 0 -- -- 85
2019-12-02 18:00:00 6.1 28 Este 44 Nordeste 0 -- -- 80
2019-12-02 17:00:00 7.2 31 Este 47 Este 0 -- -- 76
2019-12-02 16:00:00 10 31 Nordeste 44 Nordeste 0 -- -- 62
2019-12-02 15:00:00 10.7 25 Nordeste 40 Nordeste 0 -- -- 63
2019-12-02 14:00:00 8.6 24 Nordeste 42 Nordeste 0 -- -- 70
2019-12-02 13:00:00 9.2 27 Nordeste 44 Este 0 -- -- 68
2019-12-02 12:00:00 8.1 30 Nordeste 55 Nordeste 0 -- -- 74
2019-12-02 11:00:00 7 35 Nordeste 51 Nordeste 0 -- -- 77
2019-12-02 10:00:00 5.4 26 Nordeste 38 Nordeste 0 -- -- 77
2019-12-02 09:00:00 3.5 25 Nordeste 35 Nordeste 0 -- -- 83
2019-12-02 08:00:00 2.8 22 Nordeste 31 Nordeste 0 -- -- 86
2019-12-02 07:00:00 2.4 17 Nordeste 25 Nordeste 0 -- -- 88
2019-12-02 06:00:00 2.5 15 Nordeste 27 Nordeste 0 -- -- 88
2019-12-02 05:00:00 3 17 Nordeste 31 Nordeste 0 -- -- 85
2019-12-02 04:00:00 3.3 21 Nordeste 30 Nordeste 0 -- -- 84
2019-12-02 03:00:00 3.1 20 Nordeste 28 Nordeste 0 -- -- 87
2019-12-02 02:00:00 3.5 22 Nordeste 36 Nordeste 0 -- -- 87
2019-12-02 01:00:00 4 15 Nordeste 29 Nordeste 0 -- -- 88
2019-12-02 00:00:00 4.8 15 Nordeste 20 Nordeste 0 -- -- 88
2019-12-01 23:00:00 4.7 12 Nordeste 19 Nordeste 0 -- -- 94
2019-12-01 22:00:00 3.8 9 Nordeste 14 Nordeste 0 -- -- 99
2019-12-01 21:00:00 4.5 9 Nordeste 15 Nordeste 0 -- -- 97
2019-12-01 20:00:00 5.2 8 Nordeste 19 Norte 0 -- -- 95
2019-12-01 19:00:00 4.6 13 Nordeste 18 Norte 0 -- -- 97
2019-12-01 18:00:00 5.5 12 Nordeste 30 Nordeste 0 -- -- 92
2019-12-01 17:00:00 6.8 19 Nordeste 36 Nordeste 0 -- -- 90
2019-12-01 16:00:00 8 24 Nordeste 42 Norte 0 -- -- 85
2019-12-01 15:00:00 7.8 25 Nordeste 39 Nordeste 0 -- -- 90
2019-12-01 14:00:00 7.7 23 Nordeste 33 Nordeste 0 -- -- 88
2019-12-01 13:00:00 7.2 16 Nordeste 26 Norte 0 -- -- 92
2019-12-01 12:00:00 6.7 12 Nordeste 19 Nordeste 0 -- -- 100
2019-12-01 11:00:00 6.2 9 Nordeste 11 Nordeste 0 -- -- 100
2019-12-01 10:00:00 5.8 3 Sudeste 10 Sudeste 0 -- -- 100
2019-12-01 09:00:00 5.5 4 Sudeste 11 Sur 0 -- -- 100
2019-12-01 08:00:00 5.7 4 Sur 13 Sur 0 -- -- 100
2019-12-01 07:00:00 5.7 0 Calma 24 Sur 0.2 -- -- 100
2019-12-01 06:00:00 5.8 15 Sudoeste 29 Sur 0 -- -- 100
2019-12-01 05:00:00 5.6 19 Sur 30 Sur 0 -- -- 100
2019-12-01 04:00:00 5.8 20 Sur 31 Sur 0 -- -- 100
2019-12-01 03:00:00 5.8 16 Sur 37 Sudoeste 0 -- -- 100
2019-12-01 02:00:00 5.5 19 Sur 32 Sur 0 -- -- 100
2019-12-01 01:00:00 5 17 Sur 31 Sur 0 -- -- 100
2019-12-01 00:00:00 5.1 16 Sur 25 Sur 0 -- -- 99
2019-11-30 23:00:00 5.3 14 Sur 28 Sur 0 -- -- 98
2019-11-30 22:00:00 4.5 10 Sudoeste 21 Sudoeste 0 -- -- 98
2019-11-30 21:00:00 4.7 14 Sudoeste 23 Sudoeste 0 -- -- 95
2019-11-30 20:00:00 5.3 10 Oeste 28 Sudoeste 0 -- -- 93
2019-11-30 19:00:00 6.1 20 Sudoeste 27 Sudoeste 0 -- -- 93
2019-11-30 18:00:00 7.3 16 Sudoeste 32 Sudoeste 0 -- -- 90
2019-11-30 17:00:00 8.2 22 Sudoeste 33 Sudoeste 0 -- -- 90
2019-11-30 16:00:00 8.8 23 Sudoeste 33 Sudoeste 0 -- -- 93
2019-11-30 15:00:00 8.6 23 Sudoeste 45 Oeste 0 -- -- 97
2019-11-30 14:00:00 8.6 22 Oeste 49 Oeste 0 -- -- 92
2019-11-30 13:00:00 9.2 27 Oeste 41 Oeste 0 -- -- 93
2019-11-30 12:00:00 9.5 20 Sudoeste 45 Sudoeste 1 -- -- 99
2019-11-30 11:00:00 11.6 29 Sudoeste 53 Sudoeste 0 -- -- 99
2019-11-30 10:00:00 11.3 35 Sudoeste 52 Sudoeste 0 -- -- 100
2019-11-30 09:00:00 11.3 26 Sudoeste 44 Sudoeste 0 -- -- 100
2019-11-30 08:00:00 11.2 25 Sudoeste 48 Sudoeste 0 -- -- 100
2019-11-30 07:00:00 11 23 Sudoeste 42 Sudoeste 0 -- -- 100
2019-11-30 06:00:00 10.8 24 Sur 40 Sur 0 -- -- 100
2019-11-30 05:00:00 10.9 23 Sudoeste 42 Sudoeste 0 -- -- 100
2019-11-30 04:00:00 10.9 23 Sudoeste 38 Sudoeste 0 -- -- 100
2019-11-30 03:00:00 11 23 Sudoeste 40 Sudoeste 0 -- -- 100
2019-11-30 02:00:00 11.1 22 Sudoeste 40 Sudoeste 0 -- -- 100
2019-11-30 01:00:00 11.2 24 Sudoeste 41 Sudoeste 0 -- -- 100
2019-11-30 00:00:00 11.3 23 Sudoeste 39 Sudoeste 0 -- -- 100
2019-11-29 23:00:00 11.3 20 Sudoeste 34 Sudoeste 0 -- -- 100
2019-11-29 22:00:00 10.5 11 Sur 18 Sur 0 -- -- 100
2019-11-29 21:00:00 9.5 7 Sur 18 Oeste 0 -- -- 100
2019-11-29 20:00:00 10.2 10 Sur 19 Sudoeste 0 -- -- 100
2019-11-29 19:00:00 11.2 11 Sudoeste 15 Sudoeste 0 -- -- 100
2019-11-29 18:00:00 11.6 11 Sudoeste 19 Sudoeste 0 -- -- 98
2019-11-29 17:00:00 12 15 Sudoeste 25 Sudoeste 0 -- -- 94
2019-11-29 16:00:00 12.4 14 Sudoeste 28 Sudoeste 0 -- -- 91
2019-11-29 15:00:00 12.4 15 Sudoeste 24 Sudoeste 0 -- -- 89
2019-11-29 14:00:00 12.3 14 Sudoeste 22 Sudoeste 0 -- -- 88
2019-11-29 13:00:00 11.4 13 Oeste 22 Sudoeste 0 -- -- 98
2019-11-29 12:00:00 10.7 11 Oeste 17 Sudoeste 0 -- -- 100
2019-11-29 11:00:00 10.2 10 Sudoeste 16 Sudoeste 0 -- -- 100
2019-11-29 10:00:00 9.9 10 Sudoeste 15 Sur 0 -- -- 100
2019-11-29 09:00:00 9.6 4 Oeste 12 Oeste 0 -- -- 100
2019-11-29 08:00:00 10.2 11 Sudoeste 20 Oeste 0 -- -- 100
2019-11-29 07:00:00 10.4 13 Sudoeste 20 Oeste 0 -- -- 100
2019-11-29 06:00:00 10.2 14 Sudoeste 25 Sudoeste 0 -- -- 100
2019-11-29 05:00:00 9.9 11 Sudoeste 15 Sudoeste 0 -- -- 100
2019-11-29 04:00:00 10.2 10 Sudoeste 18 Oeste 0 -- -- 100
2019-11-29 03:00:00 10.8 12 Oeste 17 Sudoeste 0 -- -- 100
2019-11-29 02:00:00 10.8 8 Sudoeste 26 Oeste 0 -- -- 100
2019-11-29 01:00:00 11 13 Oeste 34 Sudoeste 0 -- -- 100
2019-11-29 00:00:00 11 21 Sudoeste 31 Sudoeste 0 -- -- 100
2019-11-28 23:00:00 10.7 17 Sudoeste 35 Sudoeste 0 -- -- 100
2019-11-28 22:00:00 10.5 26 Sudoeste 49 Sudoeste 0 -- -- 100
2019-11-28 21:00:00 10.2 31 Sudoeste 46 Sudoeste 0 -- -- 100
2019-11-28 20:00:00 10.1 28 Sudoeste 51 Sudoeste 0 -- -- 100
2019-11-28 19:00:00 10 33 Sudoeste 49 Sudoeste 0 -- -- 100
2019-11-28 18:00:00 9.8 28 Sudoeste 49 Sudoeste 0 -- -- 100
2019-11-28 17:00:00 10 25 Sudoeste 42 Sudoeste 1.2 -- -- 100
2019-11-28 16:00:00 10 24 Sudoeste 46 Sudoeste 1.2 -- -- 100
2019-11-28 15:00:00 11.7 29 Sudoeste 48 Sudoeste 0 -- -- 85
2019-11-28 14:00:00 11.4 33 Sudoeste 47 Sudoeste 0 -- -- 90
2019-11-28 13:00:00 10.9 28 Sudoeste 41 Sudoeste 0 -- -- 92
2019-11-28 12:00:00 10.6 24 Sudoeste 40 Sudoeste 0 -- -- 97
2019-11-28 11:00:00 9.8 23 Sudoeste 37 Sur 0 -- -- 100
2019-11-28 10:00:00 9.6 24 Sudoeste 42 Sudoeste 0 -- -- 100
2019-11-28 09:00:00 9.3 26 Sudoeste 40 Sudoeste 0 -- -- 100
2019-11-28 08:00:00 9.1 20 Sudoeste 42 Sudoeste 0.4 -- -- 100
2019-11-28 07:00:00 9.1 24 Sudoeste 44 Sudoeste 0.2 -- -- 100
2019-11-28 06:00:00 8.8 26 Sudoeste 44 Sudoeste 0.2 -- -- 100
2019-11-28 05:00:00 8.5 28 Sudoeste 43 Sudoeste 0.2 -- -- 100
2019-11-28 04:00:00 8.4 29 Sudoeste 44 Sudoeste 0 -- -- 100
2019-11-28 03:00:00 8.3 28 Sudoeste 46 Sudoeste 0 -- -- 100
2019-11-28 02:00:00 8.2 27 Sudoeste 45 Sudoeste 0 -- -- 100
2019-11-28 01:00:00 8.2 28 Sudoeste 51 Sudoeste 0 -- -- 100
2019-11-28 00:00:00 8 31 Sudoeste 47 Sudoeste 0 -- -- 100
2019-11-27 23:00:00 7.9 29 Sudoeste 48 Sudoeste 0 -- -- 99
2019-11-27 22:00:00 7.7 33 Sudoeste 46 Sudoeste 0 -- -- 100
2019-11-27 21:00:00 7.8 27 Sudoeste 40 Sudoeste 0 -- -- 100
2019-11-27 20:00:00 7.8 24 Sudoeste 39 Sudoeste 0 -- -- 99
2019-11-27 19:00:00 7.7 19 Sudoeste 44 Sudoeste 0.2 -- -- 100
2019-11-27 18:00:00 8 22 Sudoeste 41 Sudoeste 0.4 -- -- 97
2019-11-27 17:00:00 8.8 23 Sudoeste 57 Sudoeste 0 -- -- 90
2019-11-27 16:00:00 8.9 24 Sudoeste 47 Sudoeste 0.4 -- -- 97
2019-11-27 15:00:00 8.7 30 Sudoeste 50 Sudoeste 0 -- -- 99
2019-11-27 14:00:00 8.3 30 Sudoeste 48 Sudoeste 0.2 -- -- 100
2019-11-27 06:00:00 -- -- -- -- -- -- -- -- --
2019-11-27 05:00:00 7 27 Sudoeste 41 Oeste 0 -- -- 97
2019-11-27 04:00:00 6.9 26 Sudoeste 41 Sudoeste 0 -- -- 95
2019-11-27 03:00:00 6.7 27 Sudoeste 39 Sudoeste 0 -- -- 96
2019-11-27 02:00:00 6.5 24 Sudoeste 48 Oeste 0 -- -- 94
2019-11-27 01:00:00 7.2 29 Sudoeste 46 Oeste 0 -- -- 94
2019-11-27 00:00:00 7.7 24 Sudoeste 44 Sudoeste 0 -- -- 96
2019-11-26 23:00:00 8 31 Sudoeste 44 Sudoeste 0 -- -- 96
2019-11-26 22:00:00 8.3 26 Sudoeste 45 Oeste 0.2 -- -- 98
2019-11-26 21:00:00 8.7 29 Sudoeste 53 Sudoeste 0.6 -- -- 100
2019-11-26 20:00:00 8.6 27 Sudoeste 56 Oeste 3 -- -- 97
2019-11-26 19:00:00 10 33 Sudoeste 61 Sudoeste 1 -- -- 95
2019-11-26 18:00:00 11.6 33 Sudoeste 55 Sudoeste 0 -- -- 80
2019-11-26 17:00:00 12.5 36 Sudoeste 61 Sudoeste 0 -- -- 79
2019-11-26 16:00:00 12.8 34 Sudoeste 57 Sudoeste 0 -- -- 95
2019-11-26 15:00:00 11.9 27 Sudoeste 42 Sudoeste 0.8 -- -- 100
2019-11-26 14:00:00 11.8 28 Sudoeste 50 Sudoeste 1.8 -- -- 100
2019-11-26 13:00:00 12.2 28 Sudoeste 49 Sudoeste 0.4 -- -- 100
2019-11-26 12:00:00 11.6 29 Sudoeste 46 Sudoeste 0 -- -- 100
2019-11-26 11:00:00 11.2 24 Sudoeste 46 Sudoeste 0.6 -- -- 100
2019-11-26 10:00:00 11.1 31 Sudoeste 49 Sudoeste 0.2 -- -- 100
2019-11-26 09:00:00 10.9 28 Sudoeste 55 Sudoeste 0.6 -- -- 100
2019-11-26 08:00:00 10.7 24 Sudoeste 44 Sudoeste 1 -- -- 100
2019-11-26 07:00:00 10.4 21 Sudoeste 40 Sudoeste 0.6 -- -- 100
2019-11-26 06:00:00 9.8 20 Sur 30 Sur 0.2 -- -- 100
2019-11-26 05:00:00 9.2 18 Sur 28 Sur 0 -- -- 100
2019-11-26 04:00:00 9.4 17 Sur 34 Sudoeste 0.2 -- -- 100
2019-11-26 03:00:00 9.4 14 Sudoeste 29 Sur 0.2 -- -- 100
2019-11-26 02:00:00 9.4 17 Sudoeste 26 Sudoeste 0 -- -- 99
2019-11-26 01:00:00 9.5 17 Sudoeste 27 Sudoeste 0 -- -- 99
2019-11-26 00:00:00 9.2 13 Sudoeste 18 Sudoeste 0 -- -- 99
2019-11-25 23:00:00 8.6 12 Sudoeste 17 Sudoeste 0 -- -- 99
2019-11-25 22:00:00 8.6 13 Sudoeste 20 Sudoeste 0 -- -- 97
2019-11-25 21:00:00 9 19 Sudoeste 25 Sudoeste 0 -- -- 94
2019-11-25 20:00:00 9.1 15 Sudoeste 32 Oeste 0 -- -- 94
2019-11-25 19:00:00 9.8 22 Sudoeste 35 Sudoeste 0 -- -- 91
2019-11-25 18:00:00 10 17 Sudoeste 36 Sudoeste 0 -- -- 90
2019-11-25 17:00:00 11 23 Oeste 46 Oeste 0 -- -- 85
2019-11-25 16:00:00 11.2 26 Sudoeste 43 Oeste 0 -- -- 86
2019-11-25 15:00:00 11.3 26 Sudoeste 38 Sudoeste 0 -- -- 85
2019-11-25 14:00:00 11.3 27 Oeste 42 Sudoeste 0 -- -- 86
2019-11-25 13:00:00 11.1 27 Sudoeste 42 Oeste 0 -- -- 89
2019-11-25 12:00:00 11.3 25 Sudoeste 40 Sudoeste 0.2 -- -- 91
2019-11-25 11:00:00 9.7 23 Sudoeste 37 Sudoeste 0 -- -- 100
2019-11-25 10:00:00 9.6 23 Oeste 38 Sudoeste 0 -- -- 100
2019-11-25 09:00:00 9.5 22 Sudoeste 30 Sudoeste 0 -- -- 100
2019-11-25 08:00:00 9.4 17 Sudoeste 27 Sudoeste 0 -- -- 100
2019-11-25 07:00:00 9.5 15 Sudoeste 31 Sudoeste 0.4 -- -- 100
2019-11-25 06:00:00 9.4 18 Sudoeste 31 Sudoeste 0 -- -- 100
2019-11-25 05:00:00 9.5 18 Sudoeste 30 Sudoeste 0 -- -- 100
2019-11-25 04:00:00 9.6 21 Sudoeste 40 Sudoeste 0 -- -- 100
2019-11-25 03:00:00 9.6 26 Sudoeste 48 Oeste 0.2 -- -- 100
2019-11-25 02:00:00 9.8 23 Sudoeste 46 Oeste 0 -- -- 100
2019-11-25 01:00:00 9.8 30 Sudoeste 44 Sudoeste 0.4 -- -- 100
2019-11-25 00:00:00 9.7 23 Sudoeste 39 Sudoeste 1.4 -- -- 100
2019-11-24 23:00:00 9.3 25 Sudoeste 39 Sudoeste 1.4 -- -- 100
2019-11-24 22:00:00 8.7 28 Sudoeste 46 Sudoeste 1 -- -- 100
2019-11-24 21:00:00 8.2 21 Sudoeste 39 Sur 0.4 -- -- 100
2019-11-24 20:00:00 7.7 23 Sur 38 Sur 0.2 -- -- 100
2019-11-24 19:00:00 7.9 19 Sur 36 Sudoeste 0 -- -- 100
2019-11-24 18:00:00 7.5 22 Sudoeste 37 Sudoeste 0.2 -- -- 100
2019-11-24 17:00:00 7.1 16 Sudoeste 31 Sudoeste 0 -- -- 100
2019-11-24 16:00:00 7.7 23 Sudoeste 36 Sudoeste 0 -- -- 90
2019-11-24 15:00:00 7.4 19 Sudoeste 36 Sudoeste 0 -- -- 91
2019-11-24 14:00:00 7.8 24 Sudoeste 35 Sudoeste 0 -- -- 87
2019-11-24 13:00:00 7.3 19 Sudoeste 28 Sudoeste 0 -- -- 89
2019-11-24 12:00:00 5.9 13 Sudoeste 26 Sudoeste 0 -- -- 97
2019-11-24 11:00:00 4.6 13 Sur 21 Sudoeste 0 -- -- 100
2019-11-24 10:00:00 4 8 Sur 15 Sur 0 -- -- 100
2019-11-24 09:00:00 3.6 9 Sur 13 Sur 0 -- -- 100
2019-11-24 08:00:00 3.1 12 Sudoeste 22 Sudoeste 0 -- -- 100
2019-11-24 07:00:00 2.6 8 Sudoeste 18 Sudoeste 0 -- -- 100
2019-11-24 06:00:00 2.8 14 Sudoeste 20 Sudoeste 0 -- -- 99
2019-11-24 05:00:00 2.7 10 Sudoeste 26 Oeste 0 -- -- 97
2019-11-24 04:00:00 3.4 14 Oeste 39 Oeste 0 -- -- 96
2019-11-24 03:00:00 3.5 19 Oeste 26 Oeste 0 -- -- 97
2019-11-24 02:00:00 3.6 14 Oeste 29 Sudoeste 0 -- -- 95
2019-11-24 01:00:00 3.6 15 Sudoeste 33 Oeste 0 -- -- 99
2019-11-24 00:00:00 4.4 21 Oeste 32 Noroeste 0 -- -- 98
2019-11-23 23:00:00 4.7 22 Sudoeste 35 Sudoeste 0 -- -- 98
2019-11-23 22:00:00 4.8 16 Sudoeste 22 Sudoeste 0 -- -- 95
2019-11-23 21:00:00 5.2 18 Sudoeste 27 Oeste 0 -- -- 90
2019-11-23 20:00:00 5.4 21 Oeste 35 Sudoeste 0 -- -- 88
2019-11-23 19:00:00 5.9 20 Oeste 32 Sudoeste 0 -- -- 82
2019-11-23 18:00:00 6.7 16 Oeste 32 Noroeste 0 -- -- 77
2019-11-23 17:00:00 9.3 14 Oeste 36 Sudoeste 0 -- -- 68
2019-11-23 16:00:00 8 23 Oeste 35 Oeste 0 -- -- 73
2019-11-23 15:00:00 8.6 20 Oeste 41 Oeste 0 -- -- 69
2019-11-23 14:00:00 10.4 18 Oeste 41 Oeste 0 -- -- 64
2019-11-23 13:00:00 9.1 17 Oeste 46 Oeste 0 -- -- 70
2019-11-23 12:00:00 8.7 26 Oeste 43 Oeste 0 -- -- 70
2019-11-23 11:00:00 7.4 21 Oeste 45 Oeste 0 -- -- 76
2019-11-23 10:00:00 6.2 23 Oeste 36 Oeste 0 -- -- 79
2019-11-23 09:00:00 4.2 15 Sudoeste 35 Oeste 0 -- -- 89
2019-11-23 08:00:00 3.9 16 Sudoeste 36 Oeste 0 -- -- 85
2019-11-23 07:00:00 3.8 22 Oeste 51 Oeste 0 -- -- 83
2019-11-23 06:00:00 3.9 27 Oeste 45 Oeste 0 -- -- 87
2019-11-23 05:00:00 4.1 26 Oeste 52 Oeste 0 -- -- 90
2019-11-23 04:00:00 4.6 23 Oeste 53 Oeste 0 -- -- 90
2019-11-23 03:00:00 4.8 32 Oeste 49 Oeste 0 -- -- 90
2019-11-23 02:00:00 5 34 Oeste 58 Oeste 0 -- -- 88
2019-11-23 01:00:00 5.2 33 Oeste 64 Oeste 0 -- -- 89
2019-11-23 00:00:00 5.1 30 Oeste 59 Sudoeste 0 -- -- 86
2019-11-22 23:00:00 5.6 27 Sudoeste 46 Oeste 1.2 -- -- 95
2019-11-22 22:00:00 6.5 28 Sudoeste 53 Oeste 0 -- -- 98
2019-11-22 21:00:00 7.1 28 Sudoeste 64 Sudoeste 0.6 -- -- 99
2019-11-22 20:00:00 7.3 37 Sudoeste 59 Sudoeste 0.4 -- -- 98
2019-11-22 19:00:00 7.1 28 Sudoeste 45 Sudoeste 1.2 -- -- 100
2019-11-22 18:00:00 7 23 Sudoeste 43 Sudoeste 0.4 -- -- 98
2019-11-22 17:00:00 7.7 26 Sudoeste 60 Oeste 0 -- -- 91
2019-11-22 16:00:00 8.6 35 Oeste 61 Sudoeste 0.2 -- -- 92
2019-11-22 15:00:00 11.2 32 Sudoeste 62 Sudoeste 0.2 -- -- 81
2019-11-22 14:00:00 11 36 Sudoeste 54 Sudoeste 0 -- -- 89
2019-11-22 13:00:00 11.1 35 Sudoeste 63 Sudoeste 0.2 -- -- 94
2019-11-22 12:00:00 9.4 36 Sudoeste 61 Sur 1.4 -- -- 100
2019-11-22 11:00:00 8.9 37 Sur 58 Sudoeste 0.6 -- -- 99
2019-11-22 10:00:00 8.3 37 Sur 62 Sur 1 -- -- 100
2019-11-22 09:00:00 7.6 32 Sur 52 Sur 0.4 -- -- 100
2019-11-22 08:00:00 6.9 33 Sur 54 Sur 0.4 -- -- 100
2019-11-22 07:00:00 6.4 32 Sur 52 Sur 1 -- -- 100
2019-11-22 06:00:00 6.3 24 Sur 51 Sudoeste 1.4 -- -- 100
2019-11-22 05:00:00 6.4 29 Sur 48 Sur 1.4 -- -- 100
2019-11-22 04:00:00 6.5 24 Sudoeste 37 Sudoeste 0.6 -- -- 100
2019-11-22 03:00:00 6.2 17 Sur 35 Sur 0 -- -- 100
2019-11-22 02:00:00 6.1 17 Sur 28 Sur 0 -- -- 100
2019-11-22 01:00:00 5.9 19 Sudoeste 28 Sudoeste 0 -- -- 100
2019-11-22 00:00:00 5.5 11 Sur 19 Sur 0 -- -- 100
2019-11-21 23:00:00 5.4 10 Sur 16 Sur 0 -- -- 100
2019-11-21 22:00:00 5.3 10 Sur 18 Sur 0 -- -- 99
2019-11-21 21:00:00 4.6 11 Sur 17 Sur 0 -- -- 97
2019-11-21 20:00:00 4.3 7 Sur 8 Sur 0 -- -- 94
2019-11-21 19:00:00 3.9 3 Sur 12 Sudoeste 0 -- -- 95
2019-11-21 18:00:00 6.1 9 Sudoeste 20 Sur 0 -- -- 87
2019-11-21 17:00:00 8.3 14 Sudoeste 25 Sudoeste 0 -- -- 76
2019-11-21 16:00:00 7.2 16 Sudoeste 27 Sudoeste 0 -- -- 85
2019-11-21 15:00:00 7.5 14 Oeste 22 Oeste 0 -- -- 81
2019-11-21 14:00:00 7.3 14 Oeste 26 Sudoeste 0 -- -- 83
2019-11-21 13:00:00 6.5 12 Sudoeste 23 Sudoeste 0 -- -- 92
2019-11-21 12:00:00 6.4 14 Oeste 23 Sudoeste 0 -- -- 91
2019-11-21 11:00:00 5.7 14 Sudoeste 23 Oeste 0 -- -- 100
2019-11-21 10:00:00 4.8 12 Sudoeste 18 Oeste 0 -- -- 100
2019-11-21 09:00:00 4.9 10 Oeste 26 Oeste 0 -- -- 100
2019-11-21 08:00:00 -- -- -- -- -- -- -- -- --
2019-11-21 07:00:00 -- -- -- -- -- -- -- -- --
2019-11-21 06:00:00 -- -- -- -- -- -- -- -- --
2019-11-21 05:00:00 -- -- -- -- -- -- -- -- --
2019-11-21 04:00:00 -- -- -- -- -- -- -- -- --
2019-11-21 03:00:00 -- -- -- -- -- -- -- -- --
2019-11-21 02:00:00 -- -- -- -- -- -- -- -- --
2019-11-21 01:00:00 -- -- -- -- -- -- -- -- --
2019-11-21 00:00:00 -- -- -- -- -- -- -- -- --
2019-11-20 23:00:00 -- -- -- -- -- -- -- -- --
2019-11-20 22:00:00 -- -- -- -- -- -- -- -- --
2019-11-20 21:00:00 -- -- -- -- -- -- -- -- --
2019-11-20 20:00:00 -- -- -- -- -- -- -- -- --
2019-11-20 19:00:00 5.4 13 Sudoeste 28 Sudoeste 1 -- -- 100
2019-11-20 18:00:00 5.6 16 Sudoeste 28 Sudoeste 1 -- -- 100
2019-11-20 17:00:00 6.1 14 Sudoeste 27 Sudoeste 0 -- -- 98
2019-11-20 16:00:00 5.9 17 Sudoeste 29 Sudoeste 0 -- -- 99
2019-11-20 15:00:00 5.2 17 Sudoeste 32 Sudoeste 0 -- -- 100
2019-11-20 14:00:00 4.9 17 Sudoeste 31 Sur 0.6 -- -- 100
2019-11-20 13:00:00 4.9 14 Sudoeste 27 Sudoeste 0.2 -- -- 100
2019-11-20 12:00:00 4.6 15 Sur 32 Sudoeste 0.2 -- -- 100
2019-11-20 11:00:00 4.6 22 Sudoeste 34 Sudoeste 0.2 -- -- 100
2019-11-20 10:00:00 4.7 18 Sur 26 Sur 0.2 -- -- 100
2019-11-20 09:00:00 4.7 15 Sur 30 Sudoeste 1.2 -- -- 100
2019-11-20 08:00:00 4.8 16 Sur 26 Sur 1 -- -- 100
2019-11-20 07:00:00 4.7 13 Sur 22 Sudoeste 1.8 -- -- 100
2019-11-20 06:00:00 4.6 11 Sur 19 Sur 0.4 -- -- 100
2019-11-20 05:00:00 4.4 9 Sur 18 Sur 0.6 -- -- 100
2019-11-20 04:00:00 4.2 11 Sur 15 Sur 0 -- -- 100
2019-11-20 03:00:00 4 9 Sur 17 Sur 0 -- -- 100
2019-11-20 02:00:00 4 13 Sur 22 Sur 0.4 -- -- 100
2019-11-20 01:00:00 4.5 12 Sur 17 Sur 0.6 -- -- 100
2019-11-20 00:00:00 4.8 7 Sur 13 Sudoeste 0.2 -- -- 98
2019-11-19 23:00:00 5.6 6 Sudoeste 17 Sudoeste 0 -- -- 90
2019-11-19 22:00:00 5.7 4 Sur 7 Sur 0 -- -- 87
2019-11-19 21:00:00 5.6 3 Sur 6 Sur 0 -- -- 86
2019-11-19 20:00:00 5.6 4 Sudoeste 6 Oeste 0 -- -- 87
2019-11-19 19:00:00 5.8 5 Oeste 9 Oeste 0 -- -- 86
2019-11-19 18:00:00 6.8 6 Sudoeste 14 Sudoeste 0 -- -- 81
2019-11-19 17:00:00 7.4 11 Sudoeste 21 Sudoeste 0 -- -- 78
2019-11-19 16:00:00 7.6 14 Sudoeste 20 Sudoeste 0 -- -- 75
2019-11-19 15:00:00 8.1 13 Sudoeste 23 Sudoeste 0 -- -- 72
2019-11-19 14:00:00 7.9 11 Sudoeste 20 Sudoeste 0 -- -- 75
2019-11-19 13:00:00 7.7 8 Sudoeste 13 Sur 0 -- -- 77
2019-11-19 12:00:00 6.1 6 Sudoeste 10 Sudoeste 0 -- -- 85
2019-11-19 11:00:00 3.9 4 Este 8 Este 0 -- -- 94
2019-11-19 10:00:00 1.6 5 Este 6 Este 0 -- -- 96
2019-11-19 09:00:00 0.5 5 Este 7 Nordeste 0 -- -- 97
2019-11-19 08:00:00 0.3 6 Este 9 Este 0 -- -- 97
2019-11-19 07:00:00 -0.1 9 Este 10 Nordeste 0 -- -- 98
2019-11-19 06:00:00 0.4 5 Este 7 Este 0 -- -- 95
2019-11-19 05:00:00 0.3 2 Noroeste 7 Noroeste 0 -- -- 100
2019-11-19 04:00:00 -0.5 7 Noroeste 8 Noroeste 0 -- -- 97
2019-11-19 03:00:00 1.4 2 Este 4 Este 0 -- -- 93
2019-11-19 02:00:00 0.8 0 Calma 10 Este 0 -- -- 97
2019-11-19 01:00:00 0.7 9 Este 13 Nordeste 0 -- -- 93
2019-11-19 00:00:00 1.5 10 Nordeste 15 Este 0 -- -- 90
2019-11-18 23:00:00 2.7 11 Este 17 Este 0 -- -- 87
2019-11-18 22:00:00 3.8 4 Norte 6 Nordeste 0 -- -- 87
2019-11-18 21:00:00 4.4 3 Oeste 5 Oeste 0 -- -- 84
2019-11-18 20:00:00 5.8 4 Noroeste 10 Oeste 0 -- -- 79
2019-11-18 19:00:00 6.3 6 Noroeste 14 Oeste 0 -- -- 76
2019-11-18 18:00:00 8.7 10 Oeste 15 Oeste 0 -- -- 65
2019-11-18 17:00:00 11.6 6 Sudoeste 17 Sudoeste 0 -- -- 52
2019-11-18 16:00:00 10.3 5 Sudoeste 21 Oeste 0 -- -- 56
2019-11-18 15:00:00 10 9 Sur 18 Oeste 0 -- -- 57
2019-11-18 14:00:00 11.3 4 Sudoeste 17 Sudoeste 0 -- -- 52
2019-11-18 13:00:00 10.2 9 Sudoeste 18 Sudoeste 0 -- -- 58
2019-11-18 12:00:00 11.4 8 Noroeste 17 Noroeste 0 -- -- 51
2019-11-18 11:00:00 8.4 6 Oeste 17 Noroeste 0 -- -- 65
2019-11-18 10:00:00 8 4 Noroeste 15 Norte 0 -- -- 67
2019-11-18 09:00:00 2.6 6 Noroeste 10 Oeste 0 -- -- 85
2019-11-18 08:00:00 0.7 4 Oeste 12 Oeste 0 -- -- 94
2019-11-18 07:00:00 0.4 6 Oeste 11 Oeste 0 -- -- 100
2019-11-18 06:00:00 1 6 Oeste 12 Sudoeste 0 -- -- 98
2019-11-18 05:00:00 0.5 6 Oeste 13 Oeste 0 -- -- 100
2019-11-18 04:00:00 0.6 7 Oeste 12 Noroeste 0 -- -- 97
2019-11-18 03:00:00 1 4 Sudoeste 17 Noroeste 0 -- -- 96
2019-11-18 02:00:00 1.7 9 Oeste 16 Oeste 0 -- -- 97
2019-11-18 01:00:00 2.1 12 Oeste 16 Oeste 0 -- -- 97
2019-11-18 00:00:00 1.7 13 Sudoeste 17 Sudoeste 0 -- -- 98
2019-11-17 23:00:00 2.1 9 Sudoeste 26 Oeste 0 -- -- 94
2019-11-17 22:00:00 3.7 12 Oeste 27 Oeste 0 -- -- 87
2019-11-17 21:00:00 3.7 18 Sudoeste 28 Oeste 0 -- -- 87
2019-11-17 20:00:00 4 11 Sudoeste 28 Oeste 0 -- -- 83
2019-11-17 19:00:00 5 18 Oeste 41 Oeste 0 -- -- 79
2019-11-17 18:00:00 6.2 23 Oeste 40 Noroeste 0 -- -- 77
2019-11-17 17:00:00 8.5 19 Oeste 41 Oeste 0 -- -- 73
2019-11-17 16:00:00 10.7 26 Oeste 50 Oeste 0 -- -- 70
2019-11-17 15:00:00 8.4 22 Oeste 37 Oeste 0 -- -- 100
2019-11-17 14:00:00 7.3 17 Sudoeste 33 Sudoeste 0 -- -- 100
2019-11-17 13:00:00 6.1 19 Sudoeste 31 Sudoeste 0 -- -- 100
2019-11-17 12:00:00 5.4 18 Sudoeste 32 Sudoeste 0 -- -- 100
2019-11-17 11:00:00 4.7 17 Sudoeste 33 Sudoeste 0 -- -- 100
2019-11-17 10:00:00 4.1 17 Sudoeste 27 Sudoeste 0.2 -- -- 100
2019-11-17 09:00:00 4 14 Sudoeste 22 Sudoeste 0 -- -- 100
2019-11-17 08:00:00 3.7 15 Sudoeste 28 Sudoeste 0 -- -- 100
2019-11-17 07:00:00 3.5 17 Sudoeste 27 Sudoeste 0 -- -- 100
2019-11-17 06:00:00 3.5 19 Sudoeste 28 Sudoeste 0 -- -- 100
2019-11-17 05:00:00 3.3 16 Sudoeste 24 Sudoeste 0 -- -- 97
2019-11-17 04:00:00 3.4 15 Sudoeste 24 Sudoeste 0 -- -- 94
2019-11-17 03:00:00 3.4 16 Sudoeste 26 Sudoeste 0 -- -- 92
2019-11-17 02:00:00 3.6 11 Sudoeste 23 Sudoeste 0 -- -- 90
2019-11-17 01:00:00 3.7 17 Sudoeste 26 Sudoeste 0 -- -- 90
2019-11-17 00:00:00 3.7 15 Oeste 27 Sudoeste 0 -- -- 91
2019-11-16 23:00:00 3.4 17 Sudoeste 24 Sudoeste 0 -- -- 92
2019-11-16 22:00:00 3.6 12 Sudoeste 17 Sudoeste 0 -- -- 88
2019-11-16 21:00:00 3.6 7 Sudoeste 18 Oeste 0 -- -- 81
2019-11-16 20:00:00 3.9 14 Oeste 25 Oeste 0 -- -- 77
2019-11-16 19:00:00 4.3 17 Oeste 25 Sudoeste 0 -- -- 80
2019-11-16 18:00:00 4.6 18 Sudoeste 30 Oeste 0 -- -- 79
2019-11-16 17:00:00 4.9 16 Oeste 42 Oeste 0 -- -- 71
2019-11-16 16:00:00 6.7 28 Oeste 44 Oeste 0 -- -- 61
2019-11-16 15:00:00 7.9 19 Oeste 37 Sudoeste 0 -- -- 63
2019-11-16 14:00:00 7.2 13 Oeste 27 Sudoeste 0 -- -- 62
2019-11-16 13:00:00 5.9 18 Oeste 26 Oeste 0 -- -- 71
2019-11-16 12:00:00 6.1 14 Oeste 21 Oeste 0 -- -- 69
2019-11-16 11:00:00 4.7 13 Oeste 19 Oeste 0 -- -- 79
2019-11-16 10:00:00 1.9 10 Sudoeste 15 Sudoeste 0 -- -- 90
2019-11-16 09:00:00 -0.3 9 Sudoeste 14 Sudoeste 0 -- -- 93
2019-11-16 08:00:00 -1.7 12 Sudoeste 14 Sudoeste 0 -- -- 96
2019-11-16 07:00:00 -1.2 11 Oeste 16 Oeste 0 -- -- 97
2019-11-16 06:00:00 -0.9 11 Oeste 15 Oeste 0 -- -- 95
2019-11-16 05:00:00 -0.8 8 Oeste 14 Oeste 0 -- -- 94
2019-11-16 04:00:00 -0.6 9 Oeste 15 Oeste 0 -- -- 94
2019-11-16 03:00:00 -0.6 8 Oeste 15 Oeste 0 -- -- 93
2019-11-16 02:00:00 -1 7 Noroeste 14 Noroeste 0 -- -- 93
2019-11-16 01:00:00 -0.8 8 Oeste 11 Oeste 0 -- -- 97
2019-11-16 00:00:00 -0.6 8 Oeste 13 Oeste 0 -- -- 96
2019-11-15 23:00:00 0.2 9 Oeste 17 Oeste 0 -- -- 92
2019-11-15 22:00:00 0.9 9 Oeste 20 Oeste 0 -- -- 91
2019-11-15 21:00:00 1.6 12 Oeste 19 Oeste 0 -- -- 91
2019-11-15 20:00:00 2.5 16 Noroeste 28 Oeste 0 -- -- 86
2019-11-15 19:00:00 2.9 17 Oeste 29 Oeste 0 -- -- 82
2019-11-15 18:00:00 4 14 Oeste 29 Oeste 0 -- -- 76
2019-11-15 17:00:00 5 15 Oeste 34 Sudoeste 0 -- -- 70
2019-11-15 16:00:00 6.9 18 Oeste 34 Oeste 0 -- -- 62
2019-11-15 15:00:00 7.3 20 Oeste 34 Oeste 0 -- -- 62
2019-11-15 14:00:00 7.4 20 Oeste 33 Oeste 0 -- -- 59
2019-11-15 13:00:00 7.1 17 Oeste 34 Oeste 0 -- -- 62
2019-11-15 12:00:00 6.1 16 Oeste 31 Oeste 0 -- -- 64
2019-11-15 11:00:00 4.7 19 Oeste 33 Oeste 0 -- -- 73
2019-11-15 10:00:00 3.8 12 Oeste 23 Sudoeste 0 -- -- 78
2019-11-15 09:00:00 0.3 10 Oeste 20 Sudoeste 0 -- -- 93
2019-11-15 08:00:00 1.1 14 Oeste 25 Oeste 0 -- -- 90
2019-11-15 07:00:00 1.2 13 Oeste 25 Oeste 0 -- -- 91
2019-11-15 06:00:00 1.2 15 Oeste 27 Oeste 0 -- -- 90
2019-11-15 05:00:00 1.1 13 Oeste 22 Sudoeste 0 -- -- 91
2019-11-15 04:00:00 1.5 13 Sudoeste 28 Oeste 0 -- -- 90
2019-11-15 03:00:00 1.8 18 Oeste 30 Oeste 0 -- -- 91
2019-11-15 02:00:00 1.9 17 Oeste 33 Oeste 0 -- -- 91
2019-11-15 01:00:00 2 17 Oeste 32 Oeste 0 -- -- 90
2019-11-15 00:00:00 1.4 14 Sudoeste 21 Oeste 0 -- -- 94
2019-11-14 23:00:00 1.4 17 Oeste 24 Oeste 0 -- -- 94
2019-11-14 22:00:00 1.3 10 Sudoeste 29 Oeste 0 -- -- 95
2019-11-14 21:00:00 2.1 13 Oeste 36 Oeste 0 -- -- 93
2019-11-14 20:00:00 2.4 20 Oeste 36 Noroeste 0 -- -- 94
2019-11-14 19:00:00 2.8 16 Oeste 45 Oeste 0.4 -- -- 97
2019-11-14 18:00:00 2.9 27 Oeste 65 Oeste 0.2 -- -- 96
2019-11-14 17:00:00 4.2 24 Oeste 59 Oeste 0 -- -- 89
2019-11-14 16:00:00 4.1 31 Oeste 57 Oeste 0 -- -- 92
2019-11-14 15:00:00 3.5 30 Oeste 54 Oeste 0.8 -- -- 96
2019-11-14 14:00:00 0.3 20 Sudoeste 54 Sudoeste 2.8 -- -- 100
2019-11-14 13:00:00 3.5 35 Sudoeste 55 Sudoeste 0 -- -- 89
2019-11-14 12:00:00 3.3 35 Sudoeste 53 Sudoeste 0 -- -- 91
2019-11-14 11:00:00 3.8 27 Oeste 45 Oeste 0 -- -- 88
2019-11-14 10:00:00 2.1 26 Sudoeste 40 Sudoeste 0 -- -- 96
2019-11-14 09:00:00 1.7 19 Sudoeste 30 Oeste 0 -- -- 98
2019-11-14 08:00:00 1.3 18 Oeste 30 Sudoeste 0 -- -- 97
2019-11-14 07:00:00 1.5 16 Sudoeste 27 Sudoeste 0 -- -- 97
2019-11-14 06:00:00 2.5 18 Oeste 48 Oeste 0 -- -- 89
2019-11-14 05:00:00 3.5 23 Oeste 42 Oeste 0.2 -- -- 90
2019-11-14 04:00:00 4.5 24 Oeste 52 Oeste 0 -- -- 95
2019-11-14 03:00:00 5.6 33 Oeste 55 Oeste 2.2 -- -- 97
2019-11-14 02:00:00 5.9 23 Sudoeste 50 Sudoeste 0.8 -- -- 99
2019-11-14 01:00:00 6.5 31 Sudoeste 53 Oeste 0 -- -- 91
2019-11-14 00:00:00 6.8 31 Sudoeste 50 Sudoeste 0 -- -- 89
2019-11-13 23:00:00 6.7 31 Oeste 55 Oeste 0 -- -- 86
2019-11-13 22:00:00 7.2 31 Oeste 48 Sudoeste 0 -- -- 83
2019-11-13 21:00:00 7.6 27 Oeste 51 Sudoeste 0 -- -- 78
2019-11-13 20:00:00 7.7 15 Sudoeste 33 Oeste 0 -- -- 79
2019-11-13 19:00:00 8 20 Sudoeste 36 Oeste 0 -- -- 79
2019-11-13 18:00:00 9.3 18 Oeste 34 Oeste 0 -- -- 77
2019-11-13 17:00:00 11.5 22 Oeste 41 Oeste 0 -- -- 70
2019-11-13 16:00:00 12.8 18 Oeste 35 Oeste 0 -- -- 70
2019-11-13 15:00:00 12.8 17 Oeste 29 Sudoeste 0 -- -- 72
2019-11-13 14:00:00 13.3 14 Oeste 24 Oeste 0 -- -- 69
2019-11-13 13:00:00 13.5 9 Sur 21 Sudoeste 0 -- -- 66
2019-11-13 12:00:00 13 12 Sudoeste 19 Sudoeste 0 -- -- 79
2019-11-13 11:00:00 12.7 7 Sudoeste 11 Sudoeste 0 -- -- 83
2019-11-13 10:00:00 11 5 Sudoeste 12 Oeste 0 -- -- 86
2019-11-13 09:00:00 9.2 8 Oeste 15 Oeste 0 -- -- 93
2019-11-13 08:00:00 8 10 Oeste 19 Oeste 0 -- -- 100
2019-11-13 07:00:00 9.4 11 Oeste 26 Oeste 0 -- -- 100
2019-11-13 06:00:00 10.3 19 Oeste 36 Oeste 0 -- -- 100
2019-11-13 05:00:00 10.6 24 Oeste 39 Oeste 2 -- -- 100
2019-11-13 04:00:00 10.9 18 Oeste 36 Oeste 0.2 -- -- 100
2019-11-13 03:00:00 10.3 21 Sudoeste 40 Oeste 2 -- -- 100
2019-11-13 02:00:00 10.2 29 Sudoeste 46 Sudoeste 0.2 -- -- 100
2019-11-13 01:00:00 9.9 30 Sudoeste 50 Sudoeste 1 -- -- 100
2019-11-13 00:00:00 9.5 28 Sudoeste 50 Sudoeste 1.4 -- -- 100
2019-11-12 23:00:00 9 28 Sudoeste 44 Sudoeste 0.2 -- -- 100
2019-11-12 22:00:00 8.2 28 Sudoeste 43 Sudoeste 2.2 -- -- 100
2019-11-12 21:00:00 7.6 22 Sudoeste 32 Sudoeste 1.8 -- -- 100
2019-11-12 20:00:00 7.1 21 Sudoeste 31 Sudoeste 0.4 -- -- 100
2019-11-12 19:00:00 6.6 20 Sudoeste 36 Sudoeste 0.2 -- -- 100
2019-11-12 18:00:00 6.6 21 Sudoeste 38 Sudoeste 0 -- -- 99
2019-11-12 17:00:00 6.7 22 Sudoeste 38 Sudoeste 0 -- -- 94
2019-11-12 16:00:00 7.4 23 Sudoeste 33 Sudoeste 0 -- -- 86
2019-11-12 15:00:00 7.6 19 Sudoeste 32 Sudoeste 0 -- -- 85
2019-11-12 14:00:00 7.6 22 Sudoeste 33 Sudoeste 0 -- -- 84
2019-11-12 13:00:00 7.9 20 Sudoeste 28 Sudoeste 0 -- -- 79
2019-11-12 12:00:00 7.8 14 Oeste 26 Oeste 0 -- -- 77
2019-11-12 11:00:00 8.7 10 Sudoeste 19 Sudoeste 0 -- -- 74
2019-11-12 10:00:00 4.5 10 Sudoeste 15 Sudoeste 0 -- -- 91
2019-11-12 09:00:00 4 10 Oeste 12 Sudoeste 0 -- -- 91
2019-11-12 08:00:00 2.6 4 Sur 10 Sudoeste 0 -- -- 97
2019-11-12 07:00:00 2.7 9 Sudoeste 13 Sudoeste 0 -- -- 95
2019-11-12 06:00:00 3.2 9 Sudoeste 13 Sudoeste 0 -- -- 93
2019-11-12 05:00:00 3.2 6 Oeste 10 Sudoeste 0 -- -- 94
2019-11-12 04:00:00 3.1 6 Sudoeste 8 Sur 0 -- -- 91
2019-11-12 03:00:00 3.2 5 Sur 8 Sudoeste 0 -- -- 89
2019-11-12 02:00:00 3.2 4 Sudoeste 6 Sudoeste 0 -- -- 87
2019-11-12 01:00:00 2.9 5 Sudoeste 10 Oeste 0 -- -- 88
2019-11-12 00:00:00 3.3 4 Sur 6 Sur 0 -- -- 84
2019-11-11 23:00:00 4.2 5 Sur 9 Sudeste 0 -- -- 81
2019-11-11 22:00:00 4.4 3 Este 14 Norte 0 -- -- 82
2019-11-11 21:00:00 4.3 12 Norte 15 Norte 0 -- -- 83
2019-11-11 20:00:00 5.4 9 Norte 17 Norte 0 -- -- 79
2019-11-11 19:00:00 6.5 3 Sur 20 Noroeste 0 -- -- 75
2019-11-11 18:00:00 9.9 9 Norte 25 Noroeste 0 -- -- 63
2019-11-11 17:00:00 12.1 16 Noroeste 26 Noroeste 0 -- -- 54
2019-11-11 16:00:00 15.8 9 Noroeste 20 Noroeste 0 -- -- 45
2019-11-11 15:00:00 15 15 Noroeste 23 Noroeste 0 -- -- 50
2019-11-11 14:00:00 13.7 9 Noroeste 23 Noroeste 0 -- -- 64
2019-11-11 13:00:00 11.8 8 Oeste 19 Sudoeste 0 -- -- 96
2019-11-11 12:00:00 10 13 Sudoeste 23 Sudoeste 0 -- -- 100
2019-11-11 11:00:00 8.7 13 Sudoeste 19 Sudoeste 0 -- -- 100
2019-11-11 10:00:00 7.6 12 Sudoeste 19 Sudoeste 0 -- -- 100
2019-11-11 09:00:00 6.8 10 Sudoeste 17 Sudoeste 0 -- -- 100
2019-11-11 08:00:00 6.4 10 Sudoeste 20 Sudoeste 0 -- -- 100
2019-11-11 07:00:00 6.1 11 Sudoeste 24 Sudoeste 0 -- -- 100
2019-11-11 06:00:00 5.7 10 Sudoeste 19 Sudoeste 0 -- -- 100
2019-11-11 05:00:00 5.4 11 Sudoeste 21 Sudoeste 0 -- -- 100
2019-11-11 04:00:00 5.1 12 Sudoeste 17 Sudoeste 0 -- -- 100
2019-11-11 03:00:00 4.6 12 Oeste 21 Oeste 0 -- -- 100
2019-11-11 02:00:00 4.4 12 Sudoeste 21 Sudoeste 0 -- -- 100
2019-11-11 01:00:00 4.2 18 Sudoeste 23 Sudoeste 0 -- -- 100
2019-11-11 00:00:00 4.4 12 Sudoeste 24 Sudoeste 0 -- -- 99
2019-11-10 23:00:00 4.4 12 Sudoeste 21 Sudoeste 0 -- -- 98
2019-11-10 22:00:00 4.4 13 Sudoeste 19 Sudoeste 0 -- -- 97
2019-11-10 21:00:00 4.5 10 Sudoeste 23 Oeste 0 -- -- 89
2019-11-10 20:00:00 5.1 13 Sudoeste 21 Oeste 0 -- -- 84
2019-11-10 19:00:00 5.1 13 Oeste 25 Oeste 0 -- -- 84
2019-11-10 18:00:00 5.6 15 Oeste 37 Oeste 0 -- -- 82
2019-11-10 17:00:00 6.3 19 Oeste 36 Oeste 0 -- -- 79
2019-11-10 16:00:00 7.4 21 Oeste 32 Oeste 0 -- -- 73
2019-11-10 15:00:00 7.6 17 Oeste 32 Oeste 0 -- -- 71
2019-11-10 14:00:00 7.3 22 Oeste 39 Noroeste 0 -- -- 72
2019-11-10 13:00:00 7.7 25 Noroeste 48 Noroeste 0 -- -- 67
2019-11-10 12:00:00 8 21 Oeste 41 Oeste 0 -- -- 68
2019-11-10 11:00:00 7.3 19 Oeste 34 Oeste 0 -- -- 74
2019-11-10 10:00:00 6.5 21 Oeste 38 Oeste 0 -- -- 74
2019-11-10 09:00:00 3.9 17 Oeste 27 Oeste 0 -- -- 88
2019-11-10 08:00:00 2.7 13 Sudoeste 23 Sudoeste 0 -- -- 92
2019-11-10 07:00:00 1.7 13 Sudoeste 20 Sudoeste 0 -- -- 94
2019-11-10 06:00:00 1.8 9 Sudoeste 23 Oeste 0 -- -- 92
2019-11-10 05:00:00 4.7 12 Oeste 27 Oeste 0 -- -- 69
2019-11-10 04:00:00 2.7 12 Oeste 31 Noroeste 0 -- -- 89
2019-11-10 03:00:00 3.6 13 Sudoeste 22 Sudoeste 0 -- -- 86
2019-11-10 02:00:00 3.2 14 Sudoeste 20 Noroeste 0 -- -- 86
2019-11-10 01:00:00 3.7 9 Noroeste 28 Oeste 0 -- -- 87
2019-11-10 00:00:00 5.7 20 Oeste 35 Oeste 0 -- -- 83